sensor_id;sensor_type;location;lat;lon;timestamp;pressure;altitude;pressure_sealevel;temperature;humidity
49943;BME280;36011;53.362;58.948;2024-02-04T00:00:37;95234.22;;;-7.43;67.14
49943;BME280;36011;53.362;58.948;2024-02-04T00:03:40;95240.31;;;-7.50;67.31
49943;BME280;36011;53.362;58.948;2024-02-04T00:06:42;95244.28;;;-7.35;66.68
49943;BME280;36011;53.362;58.948;2024-02-04T00:09:45;95255.34;;;-7.35;66.83
49943;BME280;36011;53.362;58.948;2024-02-04T00:12:46;95257.00;;;-7.34;66.78
49943;BME280;36011;53.362;58.948;2024-02-04T00:15:50;95260.59;;;-7.41;66.13
49943;BME280;36011;53.362;58.948;2024-02-04T00:18:53;95253.53;;;-7.30;66.17
49943;BME280;36011;53.362;58.948;2024-02-04T00:21:56;95260.78;;;-7.11;65.13
49943;BME280;36011;53.362;58.948;2024-02-04T00:24:58;95247.25;;;-7.15;65.19
49943;BME280;36011;53.362;58.948;2024-02-04T00:28:07;95255.59;;;-7.08;64.67
49943;BME280;36011;53.362;58.948;2024-02-04T00:31:14;95257.97;;;-7.39;65.26
49943;BME280;36011;53.362;58.948;2024-02-04T00:34:18;95268.25;;;-7.41;65.34
49943;BME280;36011;53.362;58.948;2024-02-04T00:37:19;95257.06;;;-7.37;64.75
49943;BME280;36011;53.362;58.948;2024-02-04T00:40:24;95261.50;;;-7.43;64.66
49943;BME280;36011;53.362;58.948;2024-02-04T00:43:27;95264.06;;;-7.45;65.22
49943;BME280;36011;53.362;58.948;2024-02-04T00:46:30;95262.66;;;-7.60;64.74
49943;BME280;36011;53.362;58.948;2024-02-04T00:49:32;95264.63;;;-7.73;64.75
49943;BME280;36011;53.362;58.948;2024-02-04T00:52:37;95273.47;;;-7.89;64.78
49943;BME280;36011;53.362;58.948;2024-02-04T00:55:38;95268.22;;;-7.83;65.38
49943;BME280;36011;53.362;58.948;2024-02-04T00:58:39;95267.66;;;-7.97;65.01
49943;BME280;36011;53.362;58.948;2024-02-04T01:01:40;95258.69;;;-8.20;65.48
49943;BME280;36011;53.362;58.948;2024-02-04T01:04:45;95262.78;;;-8.11;65.84
49943;BME280;36011;53.362;58.948;2024-02-04T01:07:49;95253.44;;;-8.10;65.80
49943;BME280;36011;53.362;58.948;2024-02-04T01:10:53;95258.25;;;-8.42;65.93
49943;BME280;36011;53.362;58.948;2024-02-04T01:13:54;95256.72;;;-8.50;66.02
49943;BME280;36011;53.362;58.948;2024-02-04T01:16:56;95262.59;;;-8.45;65.79
49943;BME280;36011;53.362;58.948;2024-02-04T01:20:00;95250.78;;;-8.52;65.65
49943;BME280;36011;53.362;58.948;2024-02-04T01:23:02;95255.84;;;-8.49;66.35
49943;BME280;36011;53.362;58.948;2024-02-04T01:26:08;95252.59;;;-8.57;66.19
49943;BME280;36011;53.362;58.948;2024-02-04T01:29:09;95268.75;;;-8.59;65.88
49943;BME280;36011;53.362;58.948;2024-02-04T01:32:11;95254.47;;;-8.69;66.00
49943;BME280;36011;53.362;58.948;2024-02-04T01:35:12;95273.84;;;-8.59;66.20
49943;BME280;36011;53.362;58.948;2024-02-04T01:38:13;95263.75;;;-8.63;66.45
49943;BME280;36011;53.362;58.948;2024-02-04T01:41:14;95264.59;;;-8.64;66.77
49943;BME280;36011;53.362;58.948;2024-02-04T01:44:18;95258.59;;;-8.60;67.04
49943;BME280;36011;53.362;58.948;2024-02-04T01:47:22;95271.44;;;-8.68;66.97
49943;BME280;36011;53.362;58.948;2024-02-04T01:50:28;95268.75;;;-8.59;66.69
49943;BME280;36011;53.362;58.948;2024-02-04T01:53:29;95255.09;;;-8.54;66.75
49943;BME280;36011;53.362;58.948;2024-02-04T01:56:34;95274.72;;;-8.60;66.54
49943;BME280;36011;53.362;58.948;2024-02-04T01:59:38;95273.00;;;-8.57;66.45
49943;BME280;36011;53.362;58.948;2024-02-04T02:02:43;95271.59;;;-8.77;66.55
49943;BME280;36011;53.362;58.948;2024-02-04T02:05:51;95273.53;;;-8.91;66.30
49943;BME280;36011;53.362;58.948;2024-02-04T02:08:52;95258.19;;;-8.88;66.31
49943;BME280;36011;53.362;58.948;2024-02-04T02:11:54;95265.94;;;-8.96;66.39
49943;BME280;36011;53.362;58.948;2024-02-04T02:15:02;95268.50;;;-8.97;65.78
49943;BME280;36011;53.362;58.948;2024-02-04T02:18:23;95270.25;;;-8.99;65.98
49943;BME280;36011;53.362;58.948;2024-02-04T02:24:53;95256.97;;;-9.23;66.45
49943;BME280;36011;53.362;58.948;2024-02-04T02:27:56;95258.78;;;-9.28;66.75
49943;BME280;36011;53.362;58.948;2024-02-04T02:31:02;95265.09;;;-9.60;67.23
49943;BME280;36011;53.362;58.948;2024-02-04T02:34:05;95260.75;;;-9.52;67.34
49943;BME280;36011;53.362;58.948;2024-02-04T02:40:29;95270.94;;;-9.52;67.61
49943;BME280;36011;53.362;58.948;2024-02-04T02:43:31;95267.72;;;-9.66;67.27
49943;BME280;36011;53.362;58.948;2024-02-04T02:46:36;95264.38;;;-9.68;67.68
49943;BME280;36011;53.362;58.948;2024-02-04T02:49:38;95257.66;;;-9.74;67.79
49943;BME280;36011;53.362;58.948;2024-02-04T02:52:41;95271.38;;;-9.88;67.66
49943;BME280;36011;53.362;58.948;2024-02-04T02:55:45;95260.72;;;-10.18;67.91
49943;BME280;36011;53.362;58.948;2024-02-04T02:58:49;95261.53;;;-10.18;68.09
49943;BME280;36011;53.362;58.948;2024-02-04T03:01:50;95260.78;;;-10.24;68.02
49943;BME280;36011;53.362;58.948;2024-02-04T03:04:51;95266.66;;;-10.22;68.14
49943;BME280;36011;53.362;58.948;2024-02-04T03:07:52;95265.19;;;-10.38;68.18
49943;BME280;36011;53.362;58.948;2024-02-04T03:10:53;95264.47;;;-10.53;67.98
49943;BME280;36011;53.362;58.948;2024-02-04T03:13:54;95270.28;;;-10.42;68.35
49943;BME280;36011;53.362;58.948;2024-02-04T03:16:57;95268.53;;;-10.36;68.56
49943;BME280;36011;53.362;58.948;2024-02-04T03:20:00;95277.88;;;-10.35;69.22
49943;BME280;36011;53.362;58.948;2024-02-04T03:23:01;95292.38;;;-10.47;68.91
49943;BME280;36011;53.362;58.948;2024-02-04T03:26:02;95291.50;;;-10.46;69.32
49943;BME280;36011;53.362;58.948;2024-02-04T03:29:03;95290.63;;;-10.45;69.62
49943;BME280;36011;53.362;58.948;2024-02-04T03:32:07;95287.19;;;-10.37;69.68
49943;BME280;36011;53.362;58.948;2024-02-04T03:35:08;95287.25;;;-10.44;70.24
49943;BME280;36011;53.362;58.948;2024-02-04T03:38:10;95289.69;;;-10.31;69.80
49943;BME280;36011;53.362;58.948;2024-02-04T03:41:13;95294.03;;;-10.43;69.96
49943;BME280;36011;53.362;58.948;2024-02-04T03:44:14;95287.00;;;-10.22;70.09
49943;BME280;36011;53.362;58.948;2024-02-04T03:47:18;95281.91;;;-10.22;70.22
49943;BME280;36011;53.362;58.948;2024-02-04T03:50:23;95283.72;;;-10.27;70.43
49943;BME280;36011;53.362;58.948;2024-02-04T03:53:27;95276.75;;;-10.13;70.37
49943;BME280;36011;53.362;58.948;2024-02-04T03:56:28;95284.25;;;-10.02;70.13
49943;BME280;36011;53.362;58.948;2024-02-04T03:59:31;95262.13;;;-9.92;69.74
49943;BME280;36011;53.362;58.948;2024-02-04T04:02:35;95271.22;;;-9.73;69.29
49943;BME280;36011;53.362;58.948;2024-02-04T04:05:38;95272.81;;;-9.66;68.46
49943;BME280;36011;53.362;58.948;2024-02-04T04:08:41;95271.91;;;-9.60;68.27
49943;BME280;36011;53.362;58.948;2024-02-04T04:11:45;95272.59;;;-9.47;68.14
49943;BME280;36011;53.362;58.948;2024-02-04T04:14:49;95290.31;;;-9.40;67.82
49943;BME280;36011;53.362;58.948;2024-02-04T04:17:50;95282.53;;;-9.29;67.34
49943;BME280;36011;53.362;58.948;2024-02-04T04:20:54;95267.91;;;-9.15;67.08
49943;BME280;36011;53.362;58.948;2024-02-04T04:23:55;95272.06;;;-9.08;66.52
49943;BME280;36011;53.362;58.948;2024-02-04T04:27:00;95271.97;;;-9.01;66.70
49943;BME280;36011;53.362;58.948;2024-02-04T04:30:06;95283.91;;;-9.07;65.97
49943;BME280;36011;53.362;58.948;2024-02-04T04:33:14;95281.22;;;-8.97;65.79
49943;BME280;36011;53.362;58.948;2024-02-04T04:36:16;95276.97;;;-8.95;65.71
49943;BME280;36011;53.362;58.948;2024-02-04T04:39:20;95276.81;;;-8.86;65.28
49943;BME280;36011;53.362;58.948;2024-02-04T04:42:21;95284.69;;;-9.00;65.68
49943;BME280;36011;53.362;58.948;2024-02-04T04:45:23;95270.28;;;-9.02;65.47
49943;BME280;36011;53.362;58.948;2024-02-04T04:48:24;95265.25;;;-9.09;65.29
49943;BME280;36011;53.362;58.948;2024-02-04T04:51:28;95280.03;;;-8.75;64.68
49943;BME280;36011;53.362;58.948;2024-02-04T04:54:36;95280.34;;;-8.95;64.93
49943;BME280;36011;53.362;58.948;2024-02-04T04:57:40;95290.19;;;-8.69;64.57
49943;BME280;36011;53.362;58.948;2024-02-04T05:00:44;95295.28;;;-8.69;64.31
49943;BME280;36011;53.362;58.948;2024-02-04T05:03:53;95279.41;;;-8.89;64.33
49943;BME280;36011;53.362;58.948;2024-02-04T05:06:59;95294.66;;;-8.85;64.85
49943;BME280;36011;53.362;58.948;2024-02-04T05:10:02;95279.16;;;-8.72;64.72
49943;BME280;36011;53.362;58.948;2024-02-04T05:13:09;95286.81;;;-8.71;63.95
49943;BME280;36011;53.362;58.948;2024-02-04T05:16:15;95270.41;;;-8.56;63.29
49943;BME280;36011;53.362;58.948;2024-02-04T05:19:22;95283.09;;;-8.51;63.41
49943;BME280;36011;53.362;58.948;2024-02-04T05:22:28;95280.66;;;-8.57;63.90
49943;BME280;36011;53.362;58.948;2024-02-04T05:25:34;95281.97;;;-8.37;63.03
49943;BME280;36011;53.362;58.948;2024-02-04T05:28:38;95272.41;;;-8.25;62.64
49943;BME280;36011;53.362;58.948;2024-02-04T05:31:42;95270.81;;;-8.31;61.99
49943;BME280;36011;53.362;58.948;2024-02-04T05:34:45;95269.97;;;-8.31;62.72
49943;BME280;36011;53.362;58.948;2024-02-04T05:37:49;95267.38;;;-8.28;62.39
49943;BME280;36011;53.362;58.948;2024-02-04T05:40:54;95272.53;;;-8.31;62.19
49943;BME280;36011;53.362;58.948;2024-02-04T05:43:55;95270.03;;;-8.36;61.99
49943;BME280;36011;53.362;58.948;2024-02-04T05:47:00;95265.59;;;-8.25;62.22
49943;BME280;36011;53.362;58.948;2024-02-04T05:50:04;95266.38;;;-8.21;62.97
49943;BME280;36011;53.362;58.948;2024-02-04T05:53:08;95267.16;;;-7.71;61.75
49943;BME280;36011;53.362;58.948;2024-02-04T05:56:13;95278.00;;;-7.19;60.86
49943;BME280;36011;53.362;58.948;2024-02-04T05:59:17;95283.94;;;-6.79;58.80
49943;BME280;36011;53.362;58.948;2024-02-04T06:02:24;95287.47;;;-6.84;58.17
49943;BME280;36011;53.362;58.948;2024-02-04T06:05:28;95281.69;;;-6.94;58.58
49943;BME280;36011;53.362;58.948;2024-02-04T06:08:32;95286.47;;;-7.17;58.87
49943;BME280;36011;53.362;58.948;2024-02-04T06:11:36;95287.03;;;-7.03;59.15
49943;BME280;36011;53.362;58.948;2024-02-04T06:14:45;95279.13;;;-6.55;58.89
49943;BME280;36011;53.362;58.948;2024-02-04T06:17:46;95289.06;;;-6.08;57.74
49943;BME280;36011;53.362;58.948;2024-02-04T06:20:51;95281.16;;;-5.38;56.70
49943;BME280;36011;53.362;58.948;2024-02-04T06:23:57;95275.16;;;-5.08;54.83
49943;BME280;36011;53.362;58.948;2024-02-04T06:26:59;95283.16;;;-5.19;54.82
49943;BME280;36011;53.362;58.948;2024-02-04T06:30:03;95286.75;;;-4.94;54.61
49943;BME280;36011;53.362;58.948;2024-02-04T06:33:07;95289.19;;;-3.33;52.34
49943;BME280;36011;53.362;58.948;2024-02-04T06:36:11;95288.41;;;-1.82;49.99
49943;BME280;36011;53.362;58.948;2024-02-04T06:39:17;95298.25;;;1.04;44.13
49943;BME280;36011;53.362;58.948;2024-02-04T06:42:17;95296.53;;;3.60;38.58
49943;BME280;36011;53.362;58.948;2024-02-04T06:45:21;95298.88;;;5.85;35.83
49943;BME280;36011;53.362;58.948;2024-02-04T06:48:26;95303.78;;;7.19;31.76
49943;BME280;36011;53.362;58.948;2024-02-04T06:51:30;95320.66;;;7.94;30.30
49943;BME280;36011;53.362;58.948;2024-02-04T06:54:31;95318.31;;;8.78;27.92
49943;BME280;36011;53.362;58.948;2024-02-04T06:57:35;95323.63;;;9.09;27.49
49943;BME280;36011;53.362;58.948;2024-02-04T07:00:38;95310.84;;;9.77;26.53
49943;BME280;36011;53.362;58.948;2024-02-04T07:03:42;95315.06;;;10.68;26.07
49943;BME280;36011;53.362;58.948;2024-02-04T07:06:47;95315.38;;;11.79;25.18
49943;BME280;36011;53.362;58.948;2024-02-04T07:09:54;95322.69;;;12.68;23.07
49943;BME280;36011;53.362;58.948;2024-02-04T07:13:00;95336.72;;;12.86;22.74
49943;BME280;36011;53.362;58.948;2024-02-04T07:16:01;95327.84;;;12.42;21.82
49943;BME280;36011;53.362;58.948;2024-02-04T07:19:07;95325.50;;;12.21;22.35
49943;BME280;36011;53.362;58.948;2024-02-04T07:22:09;95343.03;;;12.93;21.97
49943;BME280;36011;53.362;58.948;2024-02-04T07:25:10;95336.06;;;11.74;21.97
49943;BME280;36011;53.362;58.948;2024-02-04T07:28:15;95333.59;;;10.07;23.52
49943;BME280;36011;53.362;58.948;2024-02-04T07:31:19;95333.41;;;8.53;25.02
49943;BME280;36011;53.362;58.948;2024-02-04T07:34:25;95347.22;;;8.56;25.49
49943;BME280;36011;53.362;58.948;2024-02-04T07:37:26;95336.16;;;9.26;24.97
49943;BME280;36011;53.362;58.948;2024-02-04T07:40:32;95331.25;;;9.73;24.23
49943;BME280;36011;53.362;58.948;2024-02-04T07:43:34;95328.91;;;7.33;26.32
49943;BME280;36011;53.362;58.948;2024-02-04T07:46:37;95335.78;;;4.38;29.49
49943;BME280;36011;53.362;58.948;2024-02-04T07:49:40;95344.06;;;2.46;32.52
49943;BME280;36011;53.362;58.948;2024-02-04T07:52:43;95340.25;;;1.26;34.19
49943;BME280;36011;53.362;58.948;2024-02-04T07:55:50;95344.53;;;-0.29;36.25
49943;BME280;36011;53.362;58.948;2024-02-04T07:58:58;95343.00;;;-0.90;38.33
49943;BME280;36011;53.362;58.948;2024-02-04T08:02:00;95324.13;;;-1.93;39.42
49943;BME280;36011;53.362;58.948;2024-02-04T08:05:04;95318.28;;;-2.18;40.68
49943;BME280;36011;53.362;58.948;2024-02-04T08:08:05;95316.94;;;-2.73;41.71
49943;BME280;36011;53.362;58.948;2024-02-04T08:11:09;95318.75;;;-2.53;41.51
49943;BME280;36011;53.362;58.948;2024-02-04T08:14:15;95311.09;;;-2.54;42.05
49943;BME280;36011;53.362;58.948;2024-02-04T08:17:20;95305.63;;;-2.46;41.80
49943;BME280;36011;53.362;58.948;2024-02-04T08:20:26;95302.97;;;-2.43;42.31
49943;BME280;36011;53.362;58.948;2024-02-04T08:23:30;95300.16;;;-2.37;42.08
49943;BME280;36011;53.362;58.948;2024-02-04T08:26:33;95302.22;;;-2.47;42.03
49943;BME280;36011;53.362;58.948;2024-02-04T08:29:34;95312.78;;;-2.09;41.43
49943;BME280;36011;53.362;58.948;2024-02-04T08:32:35;95313.72;;;-2.12;41.67
49943;BME280;36011;53.362;58.948;2024-02-04T08:35:36;95305.84;;;-1.87;41.03
49943;BME280;36011;53.362;58.948;2024-02-04T08:38:39;95310.31;;;-1.70;40.67
49943;BME280;36011;53.362;58.948;2024-02-04T08:41:41;95303.25;;;-1.46;40.56
49943;BME280;36011;53.362;58.948;2024-02-04T08:44:44;95318.19;;;-1.13;40.43
49943;BME280;36011;53.362;58.948;2024-02-04T08:47:49;95317.91;;;-0.88;39.89
49943;BME280;36011;53.362;58.948;2024-02-04T08:50:52;95318.97;;;-0.35;39.01
49943;BME280;36011;53.362;58.948;2024-02-04T08:53:55;95314.22;;;0.79;37.40
49943;BME280;36011;53.362;58.948;2024-02-04T08:56:59;95319.69;;;2.18;35.19
49943;BME280;36011;53.362;58.948;2024-02-04T09:00:00;95330.38;;;3.87;32.80
49943;BME280;36011;53.362;58.948;2024-02-04T09:03:06;95316.69;;;6.28;29.52
49943;BME280;36011;53.362;58.948;2024-02-04T09:06:10;95322.00;;;8.32;27.34
49943;BME280;36011;53.362;58.948;2024-02-04T09:09:13;95340.97;;;9.21;25.61
49943;BME280;36011;53.362;58.948;2024-02-04T09:12:17;95334.00;;;8.02;26.10
49943;BME280;36011;53.362;58.948;2024-02-04T09:15:22;95326.97;;;5.81;28.97
49943;BME280;36011;53.362;58.948;2024-02-04T09:18:24;95331.53;;;5.15;29.92
49943;BME280;36011;53.362;58.948;2024-02-04T09:21:25;95337.91;;;5.87;29.10
49943;BME280;36011;53.362;58.948;2024-02-04T09:24:29;95340.63;;;6.70;28.19
49943;BME280;36011;53.362;58.948;2024-02-04T09:27:33;95345.69;;;7.42;27.23
49943;BME280;36011;53.362;58.948;2024-02-04T09:30:36;95342.34;;;7.85;26.46
49943;BME280;36011;53.362;58.948;2024-02-04T09:33:38;95346.78;;;9.04;25.27
49943;BME280;36011;53.362;58.948;2024-02-04T09:36:41;95343.09;;;9.58;24.45
49943;BME280;36011;53.362;58.948;2024-02-04T09:39:42;95340.00;;;10.24;24.48
49943;BME280;36011;53.362;58.948;2024-02-04T09:42:46;95354.63;;;10.57;23.94
49943;BME280;36011;53.362;58.948;2024-02-04T09:45:52;95360.25;;;9.93;24.06
49943;BME280;36011;53.362;58.948;2024-02-04T09:48:56;95359.13;;;8.92;25.68
49943;BME280;36011;53.362;58.948;2024-02-04T09:52:00;95358.28;;;7.82;26.18
49943;BME280;36011;53.362;58.948;2024-02-04T09:55:09;95357.44;;;6.90;27.40
49943;BME280;36011;53.362;58.948;2024-02-04T09:58:12;95346.38;;;5.77;28.61
49943;BME280;36011;53.362;58.948;2024-02-04T10:01:15;95348.47;;;4.30;30.44
49943;BME280;36011;53.362;58.948;2024-02-04T10:04:18;95352.94;;;3.59;31.94
49943;BME280;36011;53.362;58.948;2024-02-04T10:07:22;95340.66;;;2.90;32.82
49943;BME280;36011;53.362;58.948;2024-02-04T10:10:27;95351.25;;;2.71;33.34
49943;BME280;36011;53.362;58.948;2024-02-04T10:13:46;95352.34;;;2.53;34.12
49943;BME280;36011;53.362;58.948;2024-02-04T10:16:49;95349.03;;;3.09;33.16
49943;BME280;36011;53.362;58.948;2024-02-04T10:19:54;95343.81;;;3.09;33.25
49943;BME280;36011;53.362;58.948;2024-02-04T10:22:58;95351.53;;;3.68;32.79
49943;BME280;36011;53.362;58.948;2024-02-04T10:26:04;95355.34;;;4.31;31.87
49943;BME280;36011;53.362;58.948;2024-02-04T10:29:06;95362.09;;;4.61;31.67
49943;BME280;36011;53.362;58.948;2024-02-04T10:32:09;95360.25;;;3.67;32.36
49943;BME280;36011;53.362;58.948;2024-02-04T10:35:12;95360.22;;;2.51;34.26
49943;BME280;36011;53.362;58.948;2024-02-04T10:38:15;95356.50;;;2.09;34.71
49943;BME280;36011;53.362;58.948;2024-02-04T10:41:19;95370.44;;;1.27;36.41
49943;BME280;36011;53.362;58.948;2024-02-04T10:44:22;95372.34;;;0.73;37.40
49943;BME280;36011;53.362;58.948;2024-02-04T10:47:32;95374.31;;;0.51;37.77
49943;BME280;36011;53.362;58.948;2024-02-04T10:50:35;95374.06;;;-0.16;38.82
49943;BME280;36011;53.362;58.948;2024-02-04T10:53:41;95385.09;;;-0.69;40.58
49943;BME280;36011;53.362;58.948;2024-02-04T10:56:45;95372.50;;;-1.16;41.94
49943;BME280;36011;53.362;58.948;2024-02-04T10:59:49;95374.00;;;-1.31;41.78
49943;BME280;36011;53.362;58.948;2024-02-04T11:02:57;95366.13;;;-1.48;42.25
49943;BME280;36011;53.362;58.948;2024-02-04T11:06:01;95367.34;;;-1.57;41.87
49943;BME280;36011;53.362;58.948;2024-02-04T11:09:04;95373.44;;;-1.38;41.58
49943;BME280;36011;53.362;58.948;2024-02-04T11:12:09;95366.22;;;-1.29;41.59
49943;BME280;36011;53.362;58.948;2024-02-04T11:15:14;95378.72;;;-1.41;40.78
49943;BME280;36011;53.362;58.948;2024-02-04T11:18:33;95385.50;;;-1.38;41.20
49943;BME280;36011;53.362;58.948;2024-02-04T11:28:11;95392.84;;;-1.92;42.79
49943;BME280;36011;53.362;58.948;2024-02-04T11:31:17;95399.88;;;-2.41;45.00
49943;BME280;36011;53.362;58.948;2024-02-04T11:34:19;95398.97;;;-2.63;45.92
49943;BME280;36011;53.362;58.948;2024-02-04T11:37:22;95394.44;;;-2.80;47.42
49943;BME280;36011;53.362;58.948;2024-02-04T11:40:45;95400.22;;;-2.97;48.32
49943;BME280;36011;53.362;58.948;2024-02-04T11:43:51;95405.88;;;-3.38;49.41
49943;BME280;36011;53.362;58.948;2024-02-04T11:46:54;95406.44;;;-3.28;50.13
49943;BME280;36011;53.362;58.948;2024-02-04T11:49:58;95403.66;;;-3.48;51.06
49943;BME280;36011;53.362;58.948;2024-02-04T11:53:05;95408.75;;;-3.72;51.54
49943;BME280;36011;53.362;58.948;2024-02-04T11:56:08;95411.31;;;-3.72;52.20
49943;BME280;36011;53.362;58.948;2024-02-04T11:59:11;95406.47;;;-3.81;52.48
49943;BME280;36011;53.362;58.948;2024-02-04T12:02:16;95411.91;;;-3.90;52.72
49943;BME280;36011;53.362;58.948;2024-02-04T12:05:19;95411.31;;;-3.98;52.58
49943;BME280;36011;53.362;58.948;2024-02-04T12:08:23;95424.34;;;-4.04;53.36
49943;BME280;36011;53.362;58.948;2024-02-04T12:11:27;95429.22;;;-4.25;53.66
49943;BME280;36011;53.362;58.948;2024-02-04T12:14:52;95426.63;;;-4.52;53.68
49943;BME280;36011;53.362;58.948;2024-02-04T12:17:54;95423.94;;;-4.48;54.53
49943;BME280;36011;53.362;58.948;2024-02-04T12:20:57;95436.84;;;-4.81;54.59
49943;BME280;36011;53.362;58.948;2024-02-04T12:24:01;95426.53;;;-4.78;54.71
49943;BME280;36011;53.362;58.948;2024-02-04T12:27:05;95423.91;;;-5.08;54.92
49943;BME280;36011;53.362;58.948;2024-02-04T12:30:09;95441.06;;;-5.10;55.51
49943;BME280;36011;53.362;58.948;2024-02-04T12:33:12;95419.03;;;-5.17;55.89
49943;BME280;36011;53.362;58.948;2024-02-04T12:36:16;95419.22;;;-5.23;56.26
49943;BME280;36011;53.362;58.948;2024-02-04T12:39:20;95423.88;;;-5.39;56.62
49943;BME280;36011;53.362;58.948;2024-02-04T12:42:23;95424.41;;;-5.26;56.90
49943;BME280;36011;53.362;58.948;2024-02-04T12:45:28;95420.72;;;-5.16;56.99
49943;BME280;36011;53.362;58.948;2024-02-04T12:48:30;95430.13;;;-5.16;57.22
49943;BME280;36011;53.362;58.948;2024-02-04T12:51:33;95425.16;;;-5.23;57.22
49943;BME280;36011;53.362;58.948;2024-02-04T12:54:40;95414.81;;;-5.20;57.57
49943;BME280;36011;53.362;58.948;2024-02-04T12:57:46;95419.41;;;-5.32;57.87
49943;BME280;36011;53.362;58.948;2024-02-04T13:00:58;95410.38;;;-5.46;58.07
49943;BME280;36011;53.362;58.948;2024-02-04T13:04:04;95404.53;;;-5.51;58.79
49943;BME280;36011;53.362;58.948;2024-02-04T13:10:14;95395.13;;;-5.50;59.25
49943;BME280;36011;53.362;58.948;2024-02-04T13:13:16;95394.44;;;-5.57;59.55
49943;BME280;36011;53.362;58.948;2024-02-04T13:16:25;95397.38;;;-5.72;59.35
49943;BME280;36011;53.362;58.948;2024-02-04T13:19:47;95401.41;;;-5.62;59.58
49943;BME280;36011;53.362;58.948;2024-02-04T13:22:50;95394.63;;;-5.65;59.76
49943;BME280;36011;53.362;58.948;2024-02-04T13:25:56;95401.16;;;-5.87;59.32
49943;BME280;36011;53.362;58.948;2024-02-04T13:29:02;95412.09;;;-5.80;59.91
49943;BME280;36011;53.362;58.948;2024-02-04T13:32:08;95404.69;;;-6.25;59.81
49943;BME280;36011;53.362;58.948;2024-02-04T13:35:12;95414.50;;;-6.46;60.62
49943;BME280;36011;53.362;58.948;2024-02-04T13:38:18;95409.81;;;-6.66;61.43
49943;BME280;36011;53.362;58.948;2024-02-04T13:41:21;95422.59;;;-6.64;61.31
49943;BME280;36011;53.362;58.948;2024-02-04T13:44:26;95412.50;;;-6.72;61.34
49943;BME280;36011;53.362;58.948;2024-02-04T13:47:30;95406.28;;;-6.59;61.97
49943;BME280;36011;53.362;58.948;2024-02-04T13:50:33;95421.22;;;-6.40;63.03
49943;BME280;36011;53.362;58.948;2024-02-04T13:53:39;95414.69;;;-6.53;62.81
49943;BME280;36011;53.362;58.948;2024-02-04T13:56:43;95408.25;;;-6.33;63.21
49943;BME280;36011;53.362;58.948;2024-02-04T13:59:46;95409.75;;;-6.63;62.75
49943;BME280;36011;53.362;58.948;2024-02-04T14:02:52;95403.59;;;-6.54;63.79
49943;BME280;36011;53.362;58.948;2024-02-04T14:05:56;95408.47;;;-6.42;63.07
49943;BME280;36011;53.362;58.948;2024-02-04T14:09:00;95407.25;;;-6.64;63.89
49943;BME280;36011;53.362;58.948;2024-02-04T14:12:04;95395.38;;;-6.68;63.78
49943;BME280;36011;53.362;58.948;2024-02-04T14:15:08;95398.19;;;-6.79;63.69
49943;BME280;36011;53.362;58.948;2024-02-04T14:18:12;95397.25;;;-6.77;64.13
49943;BME280;36011;53.362;58.948;2024-02-04T14:21:15;95399.88;;;-6.80;64.39
49943;BME280;36011;53.362;58.948;2024-02-04T14:24:19;95400.50;;;-6.68;64.97
49943;BME280;36011;53.362;58.948;2024-02-04T14:27:23;95396.88;;;-6.58;64.41
49943;BME280;36011;53.362;58.948;2024-02-04T14:30:26;95386.63;;;-6.58;64.88
49943;BME280;36011;53.362;58.948;2024-02-04T14:33:29;95387.41;;;-6.55;64.86
49943;BME280;36011;53.362;58.948;2024-02-04T14:36:32;95367.66;;;-6.48;64.93
49943;BME280;36011;53.362;58.948;2024-02-04T14:39:34;95372.84;;;-6.51;65.30
49943;BME280;36011;53.362;58.948;2024-02-04T14:42:37;95374.84;;;-6.65;65.83
49943;BME280;36011;53.362;58.948;2024-02-04T14:45:41;95371.28;;;-6.58;65.67
49943;BME280;36011;53.362;58.948;2024-02-04T14:48:44;95372.50;;;-6.74;65.73
49943;BME280;36011;53.362;58.948;2024-02-04T14:51:47;95374.66;;;-6.56;65.73
49943;BME280;36011;53.362;58.948;2024-02-04T14:54:50;95374.53;;;-6.50;65.98
49943;BME280;36011;53.362;58.948;2024-02-04T14:57:54;95374.97;;;-6.71;66.79
49943;BME280;36011;53.362;58.948;2024-02-04T15:00:57;95370.66;;;-6.68;67.17
49943;BME280;36011;53.362;58.948;2024-02-04T15:04:00;95369.53;;;-6.56;67.29
49943;BME280;36011;53.362;58.948;2024-02-04T15:07:03;95369.69;;;-6.62;66.82
49943;BME280;36011;53.362;58.948;2024-02-04T15:14:36;95350.81;;;-6.58;67.79
49943;BME280;36011;53.362;58.948;2024-02-04T15:18:39;95344.78;;;-6.56;68.26
49943;BME280;36011;53.362;58.948;2024-02-04T15:21:42;95346.72;;;-6.28;67.76
49943;BME280;36011;53.362;58.948;2024-02-04T15:24:45;95345.16;;;-6.34;68.27
49943;BME280;36011;53.362;58.948;2024-02-04T15:27:50;95335.69;;;-6.32;68.96
49943;BME280;36011;53.362;58.948;2024-02-04T15:30:53;95334.63;;;-6.23;68.76
49943;BME280;36011;53.362;58.948;2024-02-04T15:33:57;95337.78;;;-6.12;68.59
49943;BME280;36011;53.362;58.948;2024-02-04T15:37:02;95323.59;;;-6.25;69.23
49943;BME280;36011;53.362;58.948;2024-02-04T15:40:05;95325.38;;;-6.28;69.33
49943;BME280;36011;53.362;58.948;2024-02-04T15:43:08;95317.53;;;-6.21;69.87
49943;BME280;36011;53.362;58.948;2024-02-04T15:46:12;95322.69;;;-6.22;70.38
49943;BME280;36011;53.362;58.948;2024-02-04T15:49:17;95310.41;;;-6.44;70.14
49943;BME280;36011;53.362;58.948;2024-02-04T15:52:22;95311.00;;;-6.34;70.14
49943;BME280;36011;53.362;58.948;2024-02-04T15:55:26;95305.94;;;-6.36;70.88
49943;BME280;36011;53.362;58.948;2024-02-04T15:58:30;95295.63;;;-6.33;71.12
49943;BME280;36011;53.362;58.948;2024-02-04T16:01:34;95291.69;;;-6.12;70.83
49943;BME280;36011;53.362;58.948;2024-02-04T16:04:37;95289.03;;;-6.07;70.65
49943;BME280;36011;53.362;58.948;2024-02-04T16:07:43;95282.78;;;-5.97;70.91
49943;BME280;36011;53.362;58.948;2024-02-04T16:10:48;95278.19;;;-5.85;71.14
49943;BME280;36011;53.362;58.948;2024-02-04T16:13:55;95274.03;;;-5.90;70.97
49943;BME280;36011;53.362;58.948;2024-02-04T16:17:02;95269.25;;;-6.02;71.13
49943;BME280;36011;53.362;58.948;2024-02-04T16:20:09;95263.22;;;-5.68;71.79
49943;BME280;36011;53.362;58.948;2024-02-04T16:23:13;95262.22;;;-5.64;71.47